IGO374 VOGO-VOHS
Flight info
| Callsign | IGO374 |
|---|---|
| Flight time | 0h 53m |
| Altitude | 39000 |
| Route | SABIV2B SABIV W163 HBL DCT SUGLI |
| Aircraft | A20N/M-SDE2E3FGHIRWXY/LB1 |
Departure
| Time | 2026-05-04 07:49 |
|---|---|
| Airport | Goa Dabolim International Airport (VOGO) |
Arrival
| Time | 2026-05-04 08:42 |
|---|---|
| Airport | Rajiv Gandhi International Airport (VOHS) |
| Time | Latitude | Longitude | Altitude | Speed | Heading |
|---|---|---|---|---|---|
| 2026-05-04 07:27 | 15.38438 | 73.83839 | 180 ft | 0 kts | 348° |
| 2026-05-04 07:38 | 15.38354 | 73.83817 | 178 ft | 2 kts | 58° |
| 2026-05-04 07:38 | 15.38347 | 73.83801 | 192 ft | 2 kts | 71° |
| 2026-05-04 07:38 | 15.38346 | 73.83798 | 192 ft | 0 kts | 72° |
| 2026-05-04 07:40 | 15.38348 | 73.83805 | 192 ft | 3 kts | 72° |
| 2026-05-04 07:40 | 15.38365 | 73.83876 | 180 ft | 19 kts | 78° |
| 2026-05-04 07:40 | 15.38395 | 73.84036 | 190 ft | 25 kts | 79° |
| 2026-05-04 07:40 | 15.38425 | 73.84216 | 202 ft | 26 kts | 81° |
| 2026-05-04 07:41 | 15.38458 | 73.84398 | 200 ft | 26 kts | 78° |
| 2026-05-04 07:41 | 15.38493 | 73.84582 | 207 ft | 26 kts | 79° |
| 2026-05-04 07:41 | 15.38523 | 73.84754 | 222 ft | 13 kts | 80° |
| 2026-05-04 07:41 | 15.38518 | 73.84800 | 221 ft | 2 kts | 156° |
| 2026-05-04 07:42 | 15.38486 | 73.84805 | 215 ft | 7 kts | 169° |
| 2026-05-04 07:42 | 15.38419 | 73.84816 | 217 ft | 14 kts | 178° |
| 2026-05-04 07:42 | 15.38368 | 73.84748 | 210 ft | 5 kts | 275° |
| 2026-05-04 07:42 | 15.38356 | 73.84700 | 210 ft | 30 kts | 255° |
| 2026-05-04 07:43 | 15.38276 | 73.84322 | 204 ft | 58 kts | 261° |
| 2026-05-04 07:43 | 15.38216 | 73.83966 | 181 ft | 45 kts | 257° |
| 2026-05-04 07:43 | 15.38228 | 73.83842 | 177 ft | 6 kts | 335° |
| 2026-05-04 07:43 | 15.38284 | 73.83835 | 178 ft | 10 kts | 355° |
| 2026-05-04 07:44 | 15.38361 | 73.83834 | 170 ft | 11 kts | 37° |
| 2026-05-04 07:44 | 15.38366 | 73.83875 | 180 ft | 6 kts | 86° |
| 2026-05-04 07:44 | 15.38369 | 73.83895 | 181 ft | 7 kts | 81° |
| 2026-05-04 07:44 | 15.38378 | 73.83948 | 183 ft | 8 kts | 81° |
| 2026-05-04 07:45 | 15.38388 | 73.84013 | 190 ft | 10 kts | 81° |
| 2026-05-04 07:45 | 15.38401 | 73.84096 | 188 ft | 16 kts | 80° |
| 2026-05-04 07:45 | 15.38434 | 73.84240 | 194 ft | 25 kts | 77° |
| 2026-05-04 07:45 | 15.38468 | 73.84441 | 210 ft | 31 kts | 81° |
| 2026-05-04 07:46 | 15.38507 | 73.84656 | 210 ft | 27 kts | 73° |
| 2026-05-04 07:46 | 15.38523 | 73.84806 | 218 ft | 0 kts | 116° |
| 2026-05-04 07:46 | 15.38517 | 73.84810 | 218 ft | 2 kts | 149° |
| 2026-05-04 07:46 | 15.38499 | 73.84811 | 215 ft | 6 kts | 173° |
| 2026-05-04 07:47 | 15.38419 | 73.84818 | 217 ft | 17 kts | 183° |
| 2026-05-04 07:47 | 15.38367 | 73.84752 | 210 ft | 0 kts | 258° |
| 2026-05-04 07:47 | 15.38329 | 73.84578 | 212 ft | 62 kts | 258° |
| 2026-05-04 07:49 | 15.33784 | 73.80334 | 2967 ft | 214 kts | 172° |
| 2026-05-04 07:49 | 15.32259 | 73.80622 | 3508 ft | 237 kts | 173° |
| 2026-05-04 07:49 | 15.30537 | 73.80917 | 4018 ft | 264 kts | 173° |
| 2026-05-04 07:50 | 15.28639 | 73.81217 | 4592 ft | 285 kts | 173° |
| 2026-05-04 07:50 | 15.26640 | 73.81519 | 5436 ft | 292 kts | 173° |
| 2026-05-04 07:50 | 15.25302 | 73.81720 | 6114 ft | 293 kts | 174° |
| 2026-05-04 07:50 | 15.23266 | 73.82023 | 7045 ft | 296 kts | 174° |
| 2026-05-04 07:51 | 15.21238 | 73.82324 | 8100 ft | 293 kts | 174° |
| 2026-05-04 07:51 | 15.19291 | 73.82882 | 9114 ft | 294 kts | 154° |
| 2026-05-04 07:51 | 15.17696 | 73.84206 | 10188 ft | 293 kts | 130° |
| 2026-05-04 07:51 | 15.16490 | 73.86816 | 10816 ft | 324 kts | 102° |
| 2026-05-04 07:52 | 15.16375 | 73.88403 | 10997 ft | 341 kts | 88° |
| 2026-05-04 07:52 | 15.16825 | 73.90882 | 11398 ft | 359 kts | 75° |
| 2026-05-04 07:52 | 15.17543 | 73.93382 | 12182 ft | 363 kts | 73° |
| 2026-05-04 07:52 | 15.18227 | 73.95926 | 13017 ft | 368 kts | 76° |
| 2026-05-04 07:53 | 15.18804 | 73.98526 | 13796 ft | 373 kts | 78° |
| 2026-05-04 07:54 | 15.21860 | 74.17491 | 18913 ft | 392 kts | 81° |
| 2026-05-04 07:55 | 15.22307 | 74.20294 | 19430 ft | 398 kts | 81° |
| 2026-05-04 07:55 | 15.22822 | 74.23128 | 19967 ft | 402 kts | 77° |
| 2026-05-04 07:55 | 15.23604 | 74.25930 | 20514 ft | 407 kts | 73° |
| 2026-05-04 07:55 | 15.24485 | 74.28730 | 21034 ft | 412 kts | 72° |
| 2026-05-04 07:56 | 15.25401 | 74.31554 | 21548 ft | 417 kts | 72° |
| 2026-05-04 07:56 | 15.26342 | 74.34412 | 22068 ft | 421 kts | 72° |
| 2026-05-04 07:56 | 15.27295 | 74.37302 | 22552 ft | 426 kts | 72° |
| 2026-05-04 07:56 | 15.28259 | 74.40230 | 23057 ft | 431 kts | 72° |
| 2026-05-04 07:57 | 15.29225 | 74.43177 | 23520 ft | 435 kts | 72° |
| 2026-05-04 07:57 | 15.30188 | 74.46127 | 23920 ft | 439 kts | 72° |
| 2026-05-04 07:57 | 15.31167 | 74.49137 | 24336 ft | 442 kts | 72° |
| 2026-05-04 07:57 | 15.32150 | 74.52167 | 24763 ft | 444 kts | 72° |
| 2026-05-04 07:58 | 15.33115 | 74.55150 | 25164 ft | 447 kts | 72° |
| 2026-05-04 07:58 | 15.34102 | 74.58208 | 25540 ft | 450 kts | 72° |
| 2026-05-04 07:58 | 15.35103 | 74.61311 | 25938 ft | 453 kts | 72° |
| 2026-05-04 07:58 | 15.36049 | 74.64399 | 26306 ft | 456 kts | 76° |
| 2026-05-04 07:59 | 15.36712 | 74.67636 | 26682 ft | 459 kts | 83° |
| 2026-05-04 07:59 | 15.36992 | 74.70935 | 27036 ft | 461 kts | 90° |
| 2026-05-04 07:59 | 15.36955 | 74.74271 | 27405 ft | 463 kts | 92° |
| 2026-05-04 07:59 | 15.36864 | 74.77621 | 27754 ft | 466 kts | 92° |
| 2026-05-04 08:00 | 15.36780 | 74.80948 | 28101 ft | 468 kts | 92° |
| 2026-05-04 08:00 | 15.36712 | 74.84334 | 28435 ft | 471 kts | 91° |
| 2026-05-04 08:00 | 15.36663 | 74.87731 | 28775 ft | 473 kts | 91° |
| 2026-05-04 08:02 | 15.37584 | 75.11899 | 30888 ft | 488 kts | 71° |
| 2026-05-04 08:02 | 15.38855 | 75.15165 | 31210 ft | 488 kts | 64° |
| 2026-05-04 08:02 | 15.40337 | 75.18338 | 31590 ft | 488 kts | 64° |
| 2026-05-04 08:03 | 15.41813 | 75.21505 | 31978 ft | 487 kts | 64° |
| 2026-05-04 08:03 | 15.43257 | 75.24680 | 32357 ft | 486 kts | 65° |
| 2026-05-04 08:03 | 15.44673 | 75.27866 | 32731 ft | 485 kts | 65° |
| 2026-05-04 08:03 | 15.46048 | 75.31002 | 33099 ft | 484 kts | 66° |
| 2026-05-04 08:04 | 15.47436 | 75.34187 | 33457 ft | 483 kts | 66° |
| 2026-05-04 08:04 | 15.48814 | 75.37358 | 33810 ft | 482 kts | 66° |
| 2026-05-04 08:04 | 15.50196 | 75.40535 | 34132 ft | 481 kts | 66° |
| 2026-05-04 08:04 | 15.51567 | 75.43688 | 34445 ft | 479 kts | 66° |
| 2026-05-04 08:05 | 15.52940 | 75.46848 | 34758 ft | 478 kts | 66° |
| 2026-05-04 08:05 | 15.54290 | 75.49951 | 35046 ft | 477 kts | 66° |
| 2026-05-04 08:05 | 15.55655 | 75.53088 | 35346 ft | 476 kts | 66° |
| 2026-05-04 08:05 | 15.57018 | 75.56222 | 35642 ft | 475 kts | 66° |
| 2026-05-04 08:06 | 15.58382 | 75.59355 | 35942 ft | 474 kts | 66° |
| 2026-05-04 08:06 | 15.59740 | 75.62477 | 36250 ft | 473 kts | 66° |
| 2026-05-04 08:06 | 15.61076 | 75.65548 | 36537 ft | 473 kts | 66° |
| 2026-05-04 08:06 | 15.62431 | 75.68663 | 36839 ft | 472 kts | 66° |
| 2026-05-04 08:08 | 15.71825 | 75.90276 | 38680 ft | 467 kts | 66° |
| 2026-05-04 08:08 | 15.73159 | 75.93350 | 38867 ft | 466 kts | 67° |
| 2026-05-04 08:11 | 15.85090 | 76.20876 | 38891 ft | 466 kts | 67° |
| 2026-05-04 08:11 | 15.89078 | 76.30095 | 38890 ft | 466 kts | 67° |
| 2026-05-04 08:12 | 15.91739 | 76.36255 | 38885 ft | 466 kts | 67° |
| 2026-05-04 08:12 | 15.94378 | 76.42373 | 38886 ft | 467 kts | 67° |
| 2026-05-04 08:13 | 15.97036 | 76.48535 | 38889 ft | 467 kts | 67° |
| 2026-05-04 08:13 | 15.99693 | 76.54703 | 38888 ft | 467 kts | 67° |
| 2026-05-04 08:14 | 16.02345 | 76.60864 | 38887 ft | 467 kts | 67° |
| 2026-05-04 08:16 | 16.12938 | 76.85528 | 38888 ft | 468 kts | 67° |
| 2026-05-04 08:16 | 16.15593 | 76.91722 | 38886 ft | 468 kts | 68° |
| 2026-05-04 08:17 | 16.18242 | 76.97911 | 38890 ft | 468 kts | 68° |
| 2026-05-04 08:17 | 16.20891 | 77.04104 | 38882 ft | 468 kts | 68° |
| 2026-05-04 08:19 | 16.29237 | 77.29651 | 38872 ft | 468 kts | 75° |
| 2026-05-04 08:20 | 16.30153 | 77.32970 | 38689 ft | 468 kts | 75° |
| 2026-05-04 08:20 | 16.31058 | 77.36236 | 38142 ft | 470 kts | 75° |
| 2026-05-04 08:20 | 16.31961 | 77.39486 | 37298 ft | 475 kts | 75° |
| 2026-05-04 08:20 | 16.32881 | 77.42797 | 36461 ft | 478 kts | 75° |
| 2026-05-04 08:21 | 16.33807 | 77.46130 | 35748 ft | 478 kts | 75° |
| 2026-05-04 08:21 | 16.34731 | 77.49461 | 35015 ft | 479 kts | 75° |
| 2026-05-04 08:21 | 16.35658 | 77.52810 | 34243 ft | 481 kts | 75° |
| 2026-05-04 08:21 | 16.36587 | 77.56171 | 33388 ft | 483 kts | 75° |
| 2026-05-04 08:22 | 16.37516 | 77.59533 | 32597 ft | 483 kts | 75° |
| 2026-05-04 08:22 | 16.38443 | 77.62900 | 31769 ft | 484 kts | 75° |
| 2026-05-04 08:24 | 16.44755 | 77.85884 | 27388 ft | 457 kts | 75° |
| 2026-05-04 08:24 | 16.45625 | 77.89058 | 26774 ft | 453 kts | 75° |
| 2026-05-04 08:24 | 16.46485 | 77.92198 | 26150 ft | 450 kts | 75° |
| 2026-05-04 08:24 | 16.47334 | 77.95306 | 25559 ft | 446 kts | 75° |
| 2026-05-04 08:25 | 16.48184 | 77.98413 | 25011 ft | 442 kts | 75° |
| 2026-05-04 08:25 | 16.49025 | 78.01494 | 24414 ft | 439 kts | 75° |
| 2026-05-04 08:25 | 16.49860 | 78.04562 | 23819 ft | 437 kts | 75° |
| 2026-05-04 08:25 | 16.50687 | 78.07608 | 23182 ft | 435 kts | 75° |
| 2026-05-04 08:26 | 16.51496 | 78.10589 | 22591 ft | 430 kts | 75° |
| 2026-05-04 08:27 | 16.58909 | 78.29786 | 18213 ft | 407 kts | 37° |
| 2026-05-04 08:28 | 16.61348 | 78.31257 | 17446 ft | 404 kts | 21° |
| 2026-05-04 08:28 | 16.64027 | 78.31970 | 16939 ft | 391 kts | 6° |
| 2026-05-04 08:28 | 16.66692 | 78.32090 | 16413 ft | 376 kts | 0° |
| 2026-05-04 08:28 | 16.69270 | 78.32094 | 15857 ft | 373 kts | 1° |
| 2026-05-04 08:29 | 16.71855 | 78.32213 | 15384 ft | 368 kts | 5° |
| 2026-05-04 08:29 | 16.74388 | 78.32486 | 14885 ft | 365 kts | 8° |
| 2026-05-04 08:29 | 16.76889 | 78.32851 | 14394 ft | 361 kts | 9° |
| 2026-05-04 08:31 | 16.93731 | 78.35726 | 10937 ft | 339 kts | 10° |
| 2026-05-04 08:33 | 17.08580 | 78.38214 | 9089 ft | 291 kts | 9° |
| 2026-05-04 08:33 | 17.10591 | 78.38550 | 8850 ft | 292 kts | 11° |
| 2026-05-04 08:35 | 17.14316 | 78.49527 | 7414 ft | 224 kts | 87° |
| 2026-05-04 08:35 | 17.14371 | 78.51308 | 7210 ft | 258 kts | 86° |
| 2026-05-04 08:35 | 17.14425 | 78.53192 | 6918 ft | 258 kts | 86° |
| 2026-05-04 08:35 | 17.14469 | 78.55028 | 6855 ft | 250 kts | 87° |
| 2026-05-04 08:37 | 17.15060 | 78.64864 | 5482 ft | 234 kts | 57° |
| 2026-05-04 08:37 | 17.16212 | 78.66019 | 5177 ft | 232 kts | 24° |
| 2026-05-04 08:37 | 17.18301 | 78.66186 | 4801 ft | 231 kts | 339° |
| 2026-05-04 08:38 | 17.19219 | 78.65643 | 4678 ft | 229 kts | 318° |
| 2026-05-04 08:38 | 17.20112 | 78.64272 | 4456 ft | 230 kts | 292° |
| 2026-05-04 08:38 | 17.20619 | 78.62684 | 4175 ft | 231 kts | 286° |
| 2026-05-04 08:40 | 17.23085 | 78.52300 | 3295 ft | 178 kts | 271° |
| 2026-05-04 08:40 | 17.23060 | 78.51124 | 3220 ft | 156 kts | 271° |
| 2026-05-04 08:40 | 17.23039 | 78.50042 | 3023 ft | 144 kts | 272° |
| 2026-05-04 08:41 | 17.23018 | 78.48993 | 2839 ft | 147 kts | 272° |
| 2026-05-04 08:41 | 17.22995 | 78.47933 | 2653 ft | 145 kts | 273° |
| 2026-05-04 08:41 | 17.22973 | 78.46902 | 2443 ft | 142 kts | 273° |
| 2026-05-04 08:41 | 17.22915 | 78.45859 | 2172 ft | 143 kts | 272° |
| 2026-05-04 08:42 | 17.22891 | 78.44815 | 1981 ft | 142 kts | 275° |
| 2026-05-04 08:42 | 17.22912 | 78.43889 | 1979 ft | 108 kts | 269° |
| 2026-05-04 08:42 | 17.22902 | 78.43317 | 1982 ft | 59 kts | 271° |
| 2026-05-04 08:42 | 17.22953 | 78.42960 | 1980 ft | 27 kts | 299° |
| 2026-05-04 08:43 | 17.23034 | 78.42818 | 1981 ft | 23 kts | 302° |
| 2026-05-04 08:43 | 17.23118 | 78.42724 | 1980 ft | 14 kts | 358° |
| 2026-05-04 08:43 | 17.23202 | 78.42734 | 1981 ft | 7 kts | 9° |
| 2026-05-04 08:43 | 17.23257 | 78.42733 | 1982 ft | 10 kts | 356° |
| 2026-05-04 08:44 | 17.23325 | 78.42748 | 1980 ft | 5 kts | 50° |
| 2026-05-04 08:44 | 17.23326 | 78.42751 | 1980 ft | 0 kts | 57° |
| 2026-05-04 08:46 | 17.23440 | 78.42892 | 1982 ft | 0 kts | 358° |